Portada
METAR-TAF:

METAR-TAF

Aeropuertos :

Córdoba, Argentina

Aeropuerto Internacional Ingeniero Ambrosio Taravella

latitud: 31-19S, longitud: 064-13W, altitud: 484 m

Observación

El informe se hizo hace 33 minutos, a las 22:00 UTC
Viento 10 kt del norte-noreste
Temperatura 18°C
Humedad 34%
Presión 1007 hPa
Visibilidad 10 km o más
sin nubes por debajo de 1500 m y sin presencia de cumulonimbus.

METAR: SACO 222200Z 02010KT CAVOK 18/02 Q1007

Hora: 19:33 (22:33 UTC)

Pronóstico

El informe se hizo hace 5 horas y 33 minutos, a las 17:00 UTC
Pronóstico válido del 22 a las 18 UTC al 23 a las 18 UTC
Viento 25 kt del norte-noreste con ráfagas de 35 kt
Visibilidad 10 km o más
sin nubes por debajo de 1500 m y sin presencia de cumulonimbus.
Evolucionando progresivamente
del 22 a las 23 UTC al 23 a las 02 UTC
Viento 10 kt del norte

TAF: SACO 221700Z 2218/2318 02025G35KT CAVOK TX27/2218Z TN08/2310Z BECMG 2223/2302 36010KT

Observaciones y pronósticos meteorológicos de más de 4000 aeropuertos (mensajes METAR y TAF).

Los puntos amarillos y rojos representan las estaciones disponibles.

Ponga el ratón en el punto deseado para ver el nombre de la estación.

Haga clic para ver las observaciones y los pronósticos meteorológicos.

Para cambiar el mapa : haga clic en los botones verdes con una cruz de color negro para hacer un zoom, en el botón verde con un guión para alejar o en las flechas verdes para mapas adyacentes.


METAR-TAF: